createdAt,value
2023-01-07T00:01:56.017Z,49.17
2023-01-07T00:04:23.841Z,46.13
2023-01-07T00:06:52.928Z,42.03
2023-01-07T00:09:20.594Z,44.20
2023-01-07T00:11:48.278Z,40.78
2023-01-07T00:14:15.936Z,42.50
2023-01-07T00:16:43.747Z,46.05
2023-01-07T00:19:15.357Z,44.65
2023-01-07T00:21:43.344Z,40.63
2023-01-07T00:24:11.776Z,40.53
2023-01-07T00:26:40.690Z,40.80
2023-01-07T00:29:08.880Z,40.85
2023-01-07T00:31:38.688Z,43.42
2023-01-07T00:34:07.308Z,43.92
2023-01-07T00:36:39.583Z,40.97
2023-01-07T00:39:16.780Z,42.55
2023-01-07T00:42:04.035Z,41.33
2023-01-07T00:44:32.041Z,39.00
2023-01-07T00:47:00.396Z,42.65
2023-01-07T00:49:28.629Z,41.55
2023-01-07T00:51:56.201Z,41.70
2023-01-07T00:54:25.611Z,41.22
2023-01-07T00:56:53.408Z,43.90
2023-01-07T00:59:21.133Z,39.83
2023-01-07T01:01:48.963Z,41.90
2023-01-07T01:04:17.094Z,39.90
2023-01-07T01:06:44.774Z,37.45
2023-01-07T01:09:13.101Z,42.72
2023-01-07T01:11:41.971Z,41.42
2023-01-07T01:14:11.419Z,37.35
2023-01-07T01:16:39.315Z,40.22
2023-01-07T01:19:07.394Z,38.00
2023-01-07T01:21:35.034Z,38.90
2023-01-07T01:24:02.592Z,37.13
2023-01-07T01:26:30.254Z,37.88
2023-01-07T01:28:57.950Z,36.50
2023-01-07T01:31:25.962Z,35.63
2023-01-07T01:33:59.943Z,37.25
2023-01-07T01:36:27.675Z,34.63
2023-01-07T01:38:58.151Z,36.60
2023-01-07T01:41:28.527Z,36.22
2023-01-07T01:43:58.352Z,32.83
2023-01-07T01:46:35.401Z,35.42
2023-01-07T01:49:06.102Z,37.33
2023-01-07T01:51:39.614Z,35.58
2023-01-07T01:54:11.976Z,34.60
2023-01-07T01:56:46.082Z,37.33
2023-01-07T01:59:20.827Z,34.10
2023-01-07T02:01:48.992Z,37.50
2023-01-07T02:04:21.216Z,33.95
2023-01-07T02:06:58.312Z,35.80
2023-01-07T02:09:27.980Z,37.78
2023-01-07T02:12:32.916Z,34.63
2023-01-07T02:15:11.358Z,35.28
2023-01-07T02:17:55.843Z,33.03
2023-01-07T02:20:35.193Z,36.80
2023-01-07T02:23:21.559Z,40.92
2023-01-07T02:26:03.043Z,36.40
2023-01-07T02:28:55.188Z,36.63
2023-01-07T02:32:00.348Z,36.88
2023-01-07T02:34:52.377Z,39.92
2023-01-07T02:37:23.197Z,38.92
2023-01-07T02:40:06.147Z,39.20
2023-01-07T02:43:10.714Z,42.75
2023-01-07T02:45:58.388Z,41.45
2023-01-07T02:48:26.580Z,42.35
2023-01-07T02:50:54.268Z,41.78
2023-01-07T02:53:22.284Z,41.00
2023-01-07T02:56:32.085Z,40.08
2023-01-07T02:59:08.762Z,43.40
2023-01-07T03:01:55.910Z,43.40
2023-01-07T03:04:38.742Z,41.88
2023-01-07T03:07:36.256Z,43.88
2023-01-07T03:10:29.423Z,43.05
2023-01-07T03:13:18.373Z,42.38
2023-01-07T03:15:51.295Z,40.00
2023-01-07T03:18:27.384Z,42.13
2023-01-07T03:21:06.129Z,39.90
2023-01-07T03:23:39.086Z,40.63
2023-01-07T03:26:07.954Z,42.50
2023-01-07T03:28:40.762Z,43.78
2023-01-07T03:31:15.701Z,42.97
2023-01-07T03:34:01.754Z,42.60
2023-01-07T03:36:36.488Z,44.53
2023-01-07T03:39:06.843Z,45.38
2023-01-07T03:41:53.244Z,44.47
2023-01-07T03:44:20.874Z,42.65
2023-01-07T03:46:49.268Z,44.75
2023-01-07T03:49:16.827Z,42.55
2023-01-07T03:51:46.115Z,43.80
2023-01-07T03:54:14.070Z,43.58
2023-01-07T03:56:41.806Z,47.15
2023-01-07T03:59:09.559Z,54.25
2023-01-07T04:01:37.438Z,53.65
2023-01-07T04:04:05.441Z,53.83
2023-01-07T04:06:33.073Z,49.35
2023-01-07T04:09:00.676Z,54.88
2023-01-07T04:11:28.745Z,51.53
2023-01-07T04:14:00.759Z,52.28
2023-01-07T04:16:30.094Z,52.45
2023-01-07T04:19:05.586Z,51.25
2023-01-07T04:24:00.945Z,46.47
2023-01-07T04:26:28.738Z,47.97
2023-01-07T04:28:56.441Z,45.80
2023-01-07T04:31:24.212Z,49.40
2023-01-07T04:33:51.896Z,46.15
2023-01-07T04:36:19.637Z,46.60
2023-01-07T04:38:49.123Z,48.80
2023-01-07T04:41:16.795Z,49.05
2023-01-07T04:43:46.982Z,49.63
2023-01-07T04:46:14.625Z,44.28
2023-01-07T04:48:43.330Z,44.97
2023-01-07T04:51:11.247Z,42.92
2023-01-07T04:53:39.682Z,44.45
2023-01-07T04:56:08.301Z,46.83
2023-01-07T04:58:36.151Z,46.00
2023-01-07T05:01:04.479Z,46.25
2023-01-07T05:03:37.331Z,49.35
2023-01-07T05:06:06.524Z,48.15
2023-01-07T05:08:34.566Z,46.05
2023-01-07T05:11:04.126Z,47.42
2023-01-07T05:13:35.333Z,44.45
2023-01-07T05:16:04.970Z,48.45
2023-01-07T05:18:32.773Z,48.58
2023-01-07T05:21:00.331Z,48.47
2023-01-07T05:23:29.063Z,51.20
2023-01-07T05:25:58.200Z,52.05
2023-01-07T05:28:25.812Z,51.45
2023-01-07T05:30:54.059Z,46.60
2023-01-07T05:33:21.815Z,49.67
2023-01-07T05:35:49.551Z,50.05
2023-01-07T05:38:18.550Z,50.47
2023-01-07T05:40:50.012Z,55.40
2023-01-07T05:43:21.672Z,47.70
2023-01-07T05:45:49.908Z,50.67
2023-01-07T05:48:17.768Z,51.60
2023-01-07T05:50:45.391Z,49.88
2023-01-07T05:53:13.440Z,50.40
2023-01-07T05:55:41.142Z,53.28
2023-01-07T05:58:09.193Z,54.38
2023-01-07T06:00:37.251Z,53.60
2023-01-07T06:03:05.889Z,54.90
2023-01-07T06:05:33.467Z,53.17
2023-01-07T06:08:01.053Z,54.08
2023-01-07T06:10:28.588Z,55.70
2023-01-07T06:12:56.198Z,52.33
2023-01-07T06:15:24.064Z,55.45
2023-01-07T06:17:51.616Z,54.75
2023-01-07T06:20:21.872Z,56.63
2023-01-07T06:22:49.471Z,50.60
2023-01-07T06:25:19.416Z,54.75
2023-01-07T06:27:46.919Z,53.92
2023-01-07T06:30:14.631Z,53.35
2023-01-07T06:32:46.728Z,50.85
2023-01-07T06:35:14.513Z,57.13
2023-01-07T06:37:42.125Z,52.22
2023-01-07T06:40:09.953Z,51.95
2023-01-07T06:42:37.627Z,54.55
2023-01-07T06:45:05.701Z,52.72
2023-01-07T06:47:33.212Z,52.72
2023-01-07T06:50:00.805Z,55.08
2023-01-07T06:52:28.376Z,54.25
2023-01-07T06:54:55.959Z,53.97
2023-01-07T06:57:23.517Z,55.53
2023-01-07T06:59:51.040Z,53.00
2023-01-07T07:02:22.036Z,52.33
2023-01-07T07:04:50.256Z,53.10
2023-01-07T07:07:18.507Z,53.38
2023-01-07T07:09:47.223Z,54.33
2023-01-07T07:12:14.879Z,56.53
2023-01-07T07:14:42.666Z,55.90
2023-01-07T07:17:10.307Z,55.00
2023-01-07T07:19:38.010Z,55.67
2023-01-07T07:22:05.571Z,57.53
2023-01-07T07:24:33.240Z,55.42
2023-01-07T07:27:00.842Z,58.00
2023-01-07T07:29:31.267Z,55.22
2023-01-07T07:31:59.085Z,54.85
2023-01-07T07:34:26.792Z,54.97
2023-01-07T07:36:54.398Z,53.42
2023-01-07T07:39:22.054Z,56.63
2023-01-07T07:41:49.629Z,57.95
2023-01-07T07:44:18.945Z,52.45
2023-01-07T07:46:46.665Z,54.17
2023-01-07T07:49:14.508Z,55.08
2023-01-07T07:51:42.113Z,56.78
2023-01-07T07:54:09.800Z,55.08
2023-01-07T07:56:37.411Z,57.90
2023-01-07T07:59:05.117Z,56.00
2023-01-07T08:01:32.867Z,59.85
2023-01-07T08:04:00.871Z,53.58
2023-01-07T08:06:28.467Z,56.88
2023-01-07T08:08:56.115Z,55.25
2023-01-07T08:11:23.799Z,53.50
2023-01-07T08:13:51.455Z,56.20
2023-01-07T08:16:19.168Z,59.00
2023-01-07T08:18:47.168Z,56.17
2023-01-07T08:21:16.988Z,56.13
2023-01-07T08:23:44.669Z,55.13
2023-01-07T08:26:12.316Z,57.63
2023-01-07T08:28:39.954Z,57.58
2023-01-07T08:31:08.586Z,61.33
2023-01-07T08:33:38.720Z,54.13
2023-01-07T08:36:18.051Z,53.45
2023-01-07T08:38:59.821Z,51.50
2023-01-07T08:41:27.431Z,51.30
2023-01-07T08:43:55.022Z,50.97
2023-01-07T08:46:22.642Z,43.90
2023-01-07T08:48:50.221Z,44.28
2023-01-07T08:51:17.850Z,39.25
2023-01-07T08:53:45.927Z,38.25
2023-01-07T08:56:13.576Z,39.13
2023-01-07T08:58:41.353Z,38.92
2023-01-07T09:01:09.316Z,39.10
2023-01-07T09:03:36.980Z,36.22
2023-01-07T09:06:04.710Z,39.08
2023-01-07T09:08:32.483Z,33.15
2023-01-07T09:11:00.078Z,35.65
2023-01-07T09:13:27.728Z,34.67
2023-01-07T09:15:55.311Z,35.58
2023-01-07T09:18:22.997Z,33.67
2023-01-07T09:20:50.587Z,35.28
2023-01-07T09:23:43.244Z,38.85
2023-01-07T09:26:10.783Z,32.80
2023-01-07T09:28:38.260Z,33.72
2023-01-07T09:31:07.211Z,33.38
2023-01-07T09:33:35.056Z,31.58
2023-01-07T09:36:02.673Z,34.90
2023-01-07T09:38:30.312Z,33.35
2023-01-07T09:40:58.093Z,33.42
2023-01-07T09:44:00.005Z,34.10
2023-01-07T09:46:22.052Z,32.90
2023-01-07T09:49:01.136Z,35.63
2023-01-07T09:51:38.348Z,32.22
2023-01-07T09:54:17.499Z,30.60
2023-01-07T09:56:46.661Z,30.42
2023-01-07T09:59:14.921Z,33.08
2023-01-07T10:02:04.854Z,33.13
2023-01-07T10:04:50.907Z,30.90
2023-01-07T10:07:40.183Z,29.98
2023-01-07T10:10:30.682Z,28.90
2023-01-07T10:13:26.397Z,33.53
2023-01-07T10:16:11.994Z,30.90
2023-01-07T10:19:14.308Z,31.60
2023-01-07T10:21:47.538Z,27.98
2023-01-07T10:24:32.196Z,27.95
2023-01-07T10:27:10.144Z,28.25
2023-01-07T10:29:49.061Z,27.80
2023-01-07T10:32:19.632Z,29.40
2023-01-07T10:34:58.204Z,28.67
2023-01-07T10:37:41.779Z,30.48
2023-01-07T10:40:42.022Z,29.40
2023-01-07T10:46:58.615Z,27.88
2023-01-07T10:49:39.784Z,30.90
2023-01-07T11:01:21.471Z,26.15
2023-01-07T11:03:54.469Z,26.05
2023-01-07T11:06:40.993Z,26.27
2023-01-07T11:09:13.960Z,30.67
2023-01-07T11:11:42.423Z,28.17
2023-01-07T11:14:25.080Z,26.27
2023-01-07T11:17:06.872Z,27.05
2023-01-07T11:19:45.445Z,27.15
2023-01-07T11:22:25.528Z,26.63
2023-01-07T11:24:54.920Z,27.30
2023-01-07T11:27:26.064Z,26.48
2023-01-07T11:30:20.267Z,26.50
2023-01-07T11:32:59.471Z,27.15
2023-01-07T11:35:30.763Z,27.77
2023-01-07T11:37:59.865Z,27.83
2023-01-07T11:40:33.147Z,25.48
2023-01-07T11:43:03.213Z,26.65
2023-01-07T11:46:19.282Z,26.27
2023-01-07T11:48:38.622Z,25.65
2023-01-07T11:51:10.870Z,25.42
2023-01-07T11:53:52.067Z,25.42
2023-01-07T11:56:34.903Z,26.58
2023-01-07T11:59:29.586Z,29.40
2023-01-07T12:02:01.679Z,25.75
2023-01-07T12:04:36.691Z,26.02
2023-01-07T12:07:08.082Z,26.40
2023-01-07T12:09:38.828Z,25.25
2023-01-07T12:12:31.823Z,27.05
2023-01-07T12:15:26.203Z,33.85
2023-01-07T12:18:26.949Z,30.85
2023-01-07T12:21:35.754Z,29.02
2023-01-07T12:24:17.814Z,25.00
2023-01-07T12:27:03.479Z,26.88
2023-01-07T12:29:40.132Z,26.02
2023-01-07T12:32:28.136Z,24.52
2023-01-07T12:35:16.220Z,26.20
2023-01-07T12:38:09.530Z,25.02
2023-01-07T12:40:57.500Z,29.98
2023-01-07T12:44:33.599Z,24.73
2023-01-07T12:47:35.339Z,24.45
2023-01-07T12:50:26.325Z,28.92
2023-01-07T12:53:55.742Z,25.92
2023-01-07T12:56:33.384Z,28.50
2023-01-07T12:59:10.028Z,28.17
2023-01-07T13:02:14.368Z,29.52
2023-01-07T13:05:03.607Z,24.17
2023-01-07T13:07:54.059Z,30.77
2023-01-07T13:10:35.737Z,28.45
2023-01-07T13:13:14.846Z,28.40
2023-01-07T13:15:42.944Z,28.27
2023-01-07T13:18:10.603Z,30.90
2023-01-07T13:21:06.935Z,28.20
2023-01-07T13:29:06.005Z,28.08
2023-01-07T13:32:01.295Z,29.15
2023-01-07T13:35:14.948Z,28.48
2023-01-07T13:38:12.219Z,29.02
2023-01-07T13:41:23.037Z,28.80
2023-01-07T13:48:11.806Z,30.65
2023-01-07T13:51:57.427Z,33.65
2023-01-07T13:54:49.519Z,31.40
2023-01-07T13:57:50.290Z,30.55
2023-01-07T14:07:04.283Z,30.35
2023-01-07T14:09:00.603Z,33.72
2023-01-07T14:28:15.473Z,36.90
2023-01-07T14:31:37.696Z,36.55
2023-01-07T14:38:18.550Z,32.58
2023-01-07T14:42:29.413Z,34.75
2023-01-07T14:46:04.413Z,31.70
2023-01-07T14:49:14.870Z,35.95
2023-01-07T14:52:18.892Z,31.77
2023-01-07T14:56:52.886Z,38.30
2023-01-07T15:00:30.462Z,35.75
2023-01-07T15:03:33.961Z,37.92
2023-01-07T15:06:59.897Z,36.15
2023-01-07T15:11:51.671Z,38.60
2023-01-07T15:14:47.257Z,39.78
2023-01-07T15:17:24.344Z,39.10
2023-01-07T15:29:01.655Z,39.97
2023-01-07T15:32:10.358Z,38.53
2023-01-07T15:34:44.146Z,38.78
2023-01-07T15:37:17.131Z,38.63
2023-01-07T15:44:25.518Z,40.65
2023-01-07T15:46:54.073Z,42.50
2023-01-07T15:49:23.230Z,42.83
2023-01-07T15:52:45.266Z,40.80
2023-01-07T15:55:23.512Z,39.33
2023-01-07T15:57:55.136Z,45.63
2023-01-07T16:00:23.317Z,42.72
2023-01-07T16:02:51.590Z,41.42
2023-01-07T16:05:19.851Z,44.40
2023-01-07T16:07:53.954Z,44.08
2023-01-07T16:10:30.676Z,44.83
2023-01-07T16:13:04.289Z,45.28
2023-01-07T16:15:33.561Z,43.25
2023-01-07T16:18:03.752Z,44.78
2023-01-07T16:20:38.907Z,46.53
2023-01-07T16:23:09.285Z,47.22
2023-01-07T16:26:04.885Z,49.35
2023-01-07T16:28:57.080Z,44.03
2023-01-07T16:31:28.208Z,45.88
2023-01-07T16:33:59.270Z,47.10
2023-01-07T16:36:31.971Z,43.20
2023-01-07T16:39:07.692Z,45.03
2023-01-07T16:41:35.494Z,43.40
2023-01-07T16:44:03.257Z,44.80
2023-01-07T16:46:36.561Z,44.40
2023-01-07T16:49:19.475Z,46.30
2023-01-07T16:52:04.512Z,45.60
2023-01-07T16:54:43.167Z,50.00
2023-01-07T16:57:10.763Z,49.63
2023-01-07T16:59:49.797Z,46.67
2023-01-07T17:02:17.464Z,50.70
2023-01-07T17:04:47.007Z,43.28
2023-01-07T17:07:21.879Z,46.83
2023-01-07T17:09:53.849Z,47.50
2023-01-07T17:12:36.990Z,46.40
2023-01-07T17:15:32.289Z,48.25
2023-01-07T17:18:12.553Z,44.22
2023-01-07T17:20:48.919Z,46.25
2023-01-07T17:23:25.359Z,46.10
2023-01-07T17:26:11.023Z,50.55
2023-01-07T17:29:09.604Z,49.60
2023-01-07T17:31:40.049Z,45.22
2023-01-07T17:34:11.545Z,47.38
2023-01-07T17:36:39.602Z,49.80
2023-01-07T17:39:07.431Z,45.22
2023-01-07T17:41:55.421Z,142.85
2023-01-07T17:44:23.218Z,177.15
2023-01-07T17:46:54.604Z,57.42
2023-01-07T17:49:32.613Z,54.38
2023-01-07T17:52:00.358Z,53.90
2023-01-07T17:54:28.085Z,51.95
2023-01-07T17:56:56.231Z,49.55
2023-01-07T17:59:24.247Z,54.47
2023-01-07T18:01:53.457Z,50.70
2023-01-07T18:04:21.961Z,53.65
2023-01-07T18:06:49.696Z,51.97
2023-01-07T18:09:17.263Z,52.05
2023-01-07T18:12:05.309Z,56.05
2023-01-07T18:14:33.562Z,54.83
2023-01-07T18:17:01.206Z,55.17
2023-01-07T18:19:28.671Z,55.67
2023-01-07T18:21:56.344Z,62.28
2023-01-07T18:24:24.160Z,61.40
2023-01-07T18:26:51.679Z,62.08
2023-01-07T18:29:19.227Z,58.58
2023-01-07T18:31:46.932Z,53.50
2023-01-07T18:34:15.547Z,61.28
2023-01-07T18:36:43.469Z,56.42
2023-01-07T18:39:19.028Z,54.80
2023-01-07T18:41:50.187Z,59.20
2023-01-07T18:44:19.585Z,56.78
2023-01-07T18:46:47.413Z,57.65
2023-01-07T18:49:15.153Z,54.05
2023-01-07T18:51:42.710Z,55.33
2023-01-07T18:54:20.832Z,55.10
2023-01-07T18:58:35.888Z,51.67
2023-01-07T19:01:12.698Z,49.85
2023-01-07T19:05:16.471Z,54.22
2023-01-07T19:07:36.269Z,52.45
2023-01-07T19:10:17.975Z,50.08
2023-01-07T19:12:50.734Z,54.00
2023-01-07T19:15:20.847Z,49.67
2023-01-07T19:17:50.621Z,49.15
2023-01-07T19:20:18.404Z,46.03
2023-01-07T19:22:48.389Z,52.40
2023-01-07T19:25:17.247Z,45.15
2023-01-07T19:27:45.054Z,45.13
2023-01-07T19:31:11.524Z,46.88
2023-01-07T19:33:46.061Z,47.92
2023-01-07T19:36:36.660Z,47.73
2023-01-07T19:39:42.387Z,47.90
2023-01-07T20:36:18.178Z,48.80
2023-01-07T20:39:20.985Z,54.08
2023-01-07T20:42:12.541Z,56.25
2023-01-07T20:45:06.169Z,75.32
2023-01-07T20:48:57.553Z,132.50
2023-01-07T20:58:19.332Z,62.25
2023-01-07T21:00:40.352Z,49.47
2023-01-07T21:03:22.949Z,49.40
2023-01-07T21:06:28.791Z,55.05
2023-01-07T21:09:18.917Z,61.05
2023-01-07T21:19:07.546Z,50.40
2023-01-07T21:21:40.707Z,49.60
2023-01-07T21:24:24.223Z,49.60
2023-01-07T21:27:07.384Z,52.88
2023-01-07T21:29:40.696Z,62.03
2023-01-07T21:32:15.518Z,53.53
2023-01-07T21:34:46.861Z,51.75
2023-01-07T21:37:15.911Z,52.83
2023-01-07T21:39:43.752Z,51.67
2023-01-07T21:42:14.172Z,53.85
2023-01-07T21:44:43.959Z,53.75
2023-01-07T21:47:11.688Z,57.17
2023-01-07T21:49:39.528Z,55.08
2023-01-07T21:52:20.453Z,53.78
2023-01-07T21:54:57.010Z,49.88
2023-01-07T21:57:40.535Z,51.25
2023-01-07T22:00:16.212Z,50.25
2023-01-07T22:02:51.044Z,50.75
2023-01-07T22:05:28.174Z,51.20
2023-01-07T22:08:09.434Z,48.13
2023-01-07T22:11:29.698Z,50.63
2023-01-07T22:14:23.092Z,50.13
2023-01-07T22:17:17.384Z,45.75
2023-01-07T22:23:56.302Z,53.50
2023-01-07T22:26:26.916Z,51.35
2023-01-07T22:29:30.891Z,52.53
2023-01-07T22:32:10.278Z,57.70
2023-01-07T22:34:49.697Z,58.55
2023-01-07T22:37:24.327Z,53.85
2023-01-07T22:40:10.790Z,50.65
2023-01-07T22:42:53.252Z,54.40
2023-01-07T22:45:39.861Z,54.38
2023-01-07T22:48:14.676Z,51.45
2023-01-07T22:50:42.548Z,51.42
2023-01-07T22:53:22.375Z,50.17
2023-01-07T22:55:55.497Z,52.30
2023-01-07T22:58:23.292Z,51.88
2023-01-07T23:00:51.547Z,51.13
2023-01-07T23:03:27.929Z,50.63
2023-01-07T23:05:58.188Z,55.50
2023-01-07T23:08:26.041Z,54.20
2023-01-07T23:10:53.926Z,52.92
2023-01-07T23:13:22.252Z,51.60
2023-01-07T23:15:50.058Z,51.50
2023-01-07T23:18:20.172Z,52.40
2023-01-07T23:20:48.982Z,49.38
2023-01-07T23:23:19.169Z,52.55
2023-01-07T23:25:51.506Z,54.70
2023-01-07T23:28:21.769Z,52.07
2023-01-07T23:30:52.359Z,50.25
2023-01-07T23:33:22.058Z,52.40
2023-01-07T23:35:54.231Z,51.38
2023-01-07T23:38:25.183Z,50.72
2023-01-07T23:41:03.192Z,52.10
2023-01-07T23:43:49.797Z,52.90
2023-01-07T23:46:20.274Z,51.85
2023-01-07T23:48:54.882Z,52.75
2023-01-07T23:51:25.065Z,55.47
2023-01-07T23:54:06.073Z,58.15
2023-01-07T23:56:55.487Z,59.92
2023-01-07T23:59:45.759Z,55.67
